sensor_id;sensor_type;location;lat;lon;timestamp;temperature;humidity
56184;DHT22;42086;53.170;6.980;2023-01-01T00:01:12;14.60;99.90
56184;DHT22;42086;53.170;6.980;2023-01-01T00:03:39;14.50;99.90
56184;DHT22;42086;53.170;6.980;2023-01-01T00:06:10;14.30;99.90
56184;DHT22;42086;53.170;6.980;2023-01-01T00:08:36;14.20;99.90
56184;DHT22;42086;53.170;6.980;2023-01-01T00:11:04;14.00;99.90
56184;DHT22;42086;53.170;6.980;2023-01-01T00:13:31;13.90;99.90
56184;DHT22;42086;53.170;6.980;2023-01-01T00:16:09;13.70;99.90
56184;DHT22;42086;53.170;6.980;2023-01-01T00:18:35;13.70;99.90
56184;DHT22;42086;53.170;6.980;2023-01-01T00:21:06;13.70;99.90
56184;DHT22;42086;53.170;6.980;2023-01-01T00:23:34;13.60;99.90
56184;DHT22;42086;53.170;6.980;2023-01-01T00:25:59;13.50;99.90
56184;DHT22;42086;53.170;6.980;2023-01-01T00:28:25;13.40;99.90
56184;DHT22;42086;53.170;6.980;2023-01-01T00:30:51;13.30;99.90
56184;DHT22;42086;53.170;6.980;2023-01-01T00:33:17;13.10;99.90
56184;DHT22;42086;53.170;6.980;2023-01-01T00:35:43;13.00;99.90
56184;DHT22;42086;53.170;6.980;2023-01-01T00:38:08;13.10;99.90
56184;DHT22;42086;53.170;6.980;2023-01-01T00:40:34;13.00;99.90
56184;DHT22;42086;53.170;6.980;2023-01-01T00:43:00;13.00;99.90
56184;DHT22;42086;53.170;6.980;2023-01-01T00:45:25;13.10;99.90
56184;DHT22;42086;53.170;6.980;2023-01-01T00:47:52;13.10;99.90
56184;DHT22;42086;53.170;6.980;2023-01-01T00:50:19;13.10;99.90
56184;DHT22;42086;53.170;6.980;2023-01-01T00:52:44;13.20;99.90
56184;DHT22;42086;53.170;6.980;2023-01-01T00:55:11;13.30;99.90
56184;DHT22;42086;53.170;6.980;2023-01-01T00:57:37;13.30;99.90
56184;DHT22;42086;53.170;6.980;2023-01-01T01:00:03;13.20;99.90
56184;DHT22;42086;53.170;6.980;2023-01-01T01:02:30;13.30;99.90
56184;DHT22;42086;53.170;6.980;2023-01-01T01:04:55;13.30;99.90
56184;DHT22;42086;53.170;6.980;2023-01-01T01:07:21;13.20;99.90
56184;DHT22;42086;53.170;6.980;2023-01-01T01:09:47;13.20;99.90
56184;DHT22;42086;53.170;6.980;2023-01-01T01:12:12;13.30;99.90
56184;DHT22;42086;53.170;6.980;2023-01-01T01:14:38;13.40;99.90
56184;DHT22;42086;53.170;6.980;2023-01-01T01:17:04;13.40;99.90
56184;DHT22;42086;53.170;6.980;2023-01-01T01:19:29;13.40;99.90
56184;DHT22;42086;53.170;6.980;2023-01-01T01:21:55;13.50;99.90
56184;DHT22;42086;53.170;6.980;2023-01-01T01:24:21;13.60;99.90
56184;DHT22;42086;53.170;6.980;2023-01-01T01:26:46;13.70;99.90
56184;DHT22;42086;53.170;6.980;2023-01-01T01:29:12;13.60;99.90
56184;DHT22;42086;53.170;6.980;2023-01-01T01:31:38;13.70;99.90
56184;DHT22;42086;53.170;6.980;2023-01-01T01:34:05;13.70;99.90
56184;DHT22;42086;53.170;6.980;2023-01-01T01:36:31;13.80;99.90
56184;DHT22;42086;53.170;6.980;2023-01-01T01:38:56;13.80;99.90
56184;DHT22;42086;53.170;6.980;2023-01-01T01:41:24;13.80;99.90
56184;DHT22;42086;53.170;6.980;2023-01-01T01:46:32;13.90;99.90
56184;DHT22;42086;53.170;6.980;2023-01-01T01:49:04;13.80;99.90
56184;DHT22;42086;53.170;6.980;2023-01-01T01:51:36;13.60;99.90
56184;DHT22;42086;53.170;6.980;2023-01-01T01:54:08;13.40;99.90
56184;DHT22;42086;53.170;6.980;2023-01-01T01:56:58;13.30;99.90
56184;DHT22;42086;53.170;6.980;2023-01-01T01:59:27;13.20;99.90
56184;DHT22;42086;53.170;6.980;2023-01-01T02:01:54;13.30;99.90
56184;DHT22;42086;53.170;6.980;2023-01-01T02:04:20;13.20;99.90
56184;DHT22;42086;53.170;6.980;2023-01-01T02:06:47;13.20;99.90
56184;DHT22;42086;53.170;6.980;2023-01-01T02:09:13;13.10;99.90
56184;DHT22;42086;53.170;6.980;2023-01-01T02:11:39;13.10;99.90
56184;DHT22;42086;53.170;6.980;2023-01-01T02:14:04;13.10;99.90
56184;DHT22;42086;53.170;6.980;2023-01-01T02:16:43;13.40;99.90
56184;DHT22;42086;53.170;6.980;2023-01-01T02:19:43;13.30;99.90
56184;DHT22;42086;53.170;6.980;2023-01-01T02:28:00;13.20;99.90
56184;DHT22;42086;53.170;6.980;2023-01-01T02:30:28;13.40;99.90
56184;DHT22;42086;53.170;6.980;2023-01-01T02:33:01;13.30;99.90
56184;DHT22;42086;53.170;6.980;2023-01-01T02:35:35;13.40;99.90
56184;DHT22;42086;53.170;6.980;2023-01-01T02:40:53;13.40;99.90
56184;DHT22;42086;53.170;6.980;2023-01-01T02:43:20;13.60;99.90
56184;DHT22;42086;53.170;6.980;2023-01-01T02:45:46;13.50;99.90
56184;DHT22;42086;53.170;6.980;2023-01-01T02:48:41;13.60;99.90
56184;DHT22;42086;53.170;6.980;2023-01-01T02:56:40;13.70;99.90
56184;DHT22;42086;53.170;6.980;2023-01-01T02:59:14;13.70;99.90
56184;DHT22;42086;53.170;6.980;2023-01-01T03:08:16;13.80;99.90
56184;DHT22;42086;53.170;6.980;2023-01-01T03:18:25;13.80;99.90
56184;DHT22;42086;53.170;6.980;2023-01-01T03:20:56;13.90;99.90
56184;DHT22;42086;53.170;6.980;2023-01-01T03:23:29;14.00;99.90
56184;DHT22;42086;53.170;6.980;2023-01-01T03:26:00;14.00;99.90
56184;DHT22;42086;53.170;6.980;2023-01-01T03:28:34;13.90;99.90
56184;DHT22;42086;53.170;6.980;2023-01-01T03:31:01;13.90;99.90
56184;DHT22;42086;53.170;6.980;2023-01-01T03:33:40;13.90;99.90
56184;DHT22;42086;53.170;6.980;2023-01-01T03:36:12;14.00;99.90
56184;DHT22;42086;53.170;6.980;2023-01-01T03:38:58;14.00;99.90
56184;DHT22;42086;53.170;6.980;2023-01-01T03:41:33;14.10;99.90
56184;DHT22;42086;53.170;6.980;2023-01-01T03:46:53;14.10;99.90
56184;DHT22;42086;53.170;6.980;2023-01-01T03:49:19;14.30;99.90
56184;DHT22;42086;53.170;6.980;2023-01-01T03:51:57;14.20;99.90
56184;DHT22;42086;53.170;6.980;2023-01-01T04:00:29;14.20;99.90
56184;DHT22;42086;53.170;6.980;2023-01-01T04:03:01;14.00;99.90
56184;DHT22;42086;53.170;6.980;2023-01-01T04:05:31;14.00;99.90
56184;DHT22;42086;53.170;6.980;2023-01-01T04:08:01;13.60;99.90
56184;DHT22;42086;53.170;6.980;2023-01-01T04:10:29;13.40;99.90
56184;DHT22;42086;53.170;6.980;2023-01-01T04:12:56;13.20;99.90
56184;DHT22;42086;53.170;6.980;2023-01-01T04:15:25;13.10;99.90
56184;DHT22;42086;53.170;6.980;2023-01-01T04:17:52;13.00;99.90
56184;DHT22;42086;53.170;6.980;2023-01-01T04:20:19;13.00;99.90
56184;DHT22;42086;53.170;6.980;2023-01-01T04:22:45;12.70;99.90
56184;DHT22;42086;53.170;6.980;2023-01-01T04:25:11;12.80;99.90
56184;DHT22;42086;53.170;6.980;2023-01-01T04:27:37;12.70;99.90
56184;DHT22;42086;53.170;6.980;2023-01-01T04:30:05;12.70;99.90
56184;DHT22;42086;53.170;6.980;2023-01-01T04:32:31;12.70;99.90
56184;DHT22;42086;53.170;6.980;2023-01-01T04:34:57;12.60;99.90
56184;DHT22;42086;53.170;6.980;2023-01-01T04:37:23;12.60;99.90
56184;DHT22;42086;53.170;6.980;2023-01-01T04:39:48;12.60;99.90
56184;DHT22;42086;53.170;6.980;2023-01-01T04:42:14;12.50;99.90
56184;DHT22;42086;53.170;6.980;2023-01-01T04:44:40;12.50;99.90
56184;DHT22;42086;53.170;6.980;2023-01-01T04:47:06;12.60;99.90
56184;DHT22;42086;53.170;6.980;2023-01-01T04:49:31;12.60;99.90
56184;DHT22;42086;53.170;6.980;2023-01-01T04:51:57;12.60;99.90
56184;DHT22;42086;53.170;6.980;2023-01-01T04:54:23;12.60;99.90
56184;DHT22;42086;53.170;6.980;2023-01-01T04:56:48;12.60;99.90
56184;DHT22;42086;53.170;6.980;2023-01-01T04:59:14;12.50;99.90
56184;DHT22;42086;53.170;6.980;2023-01-01T05:01:40;12.50;99.90
56184;DHT22;42086;53.170;6.980;2023-01-01T05:04:05;12.50;99.90
56184;DHT22;42086;53.170;6.980;2023-01-01T05:06:31;12.50;99.90
56184;DHT22;42086;53.170;6.980;2023-01-01T05:08:57;12.50;99.90
56184;DHT22;42086;53.170;6.980;2023-01-01T05:11:28;12.50;99.90
56184;DHT22;42086;53.170;6.980;2023-01-01T05:13:58;12.80;99.90
56184;DHT22;42086;53.170;6.980;2023-01-01T05:16:26;12.80;99.90
56184;DHT22;42086;53.170;6.980;2023-01-01T05:18:52;12.80;99.90
56184;DHT22;42086;53.170;6.980;2023-01-01T05:21:23;13.00;99.90
56184;DHT22;42086;53.170;6.980;2023-01-01T05:23:53;13.10;99.90
56184;DHT22;42086;53.170;6.980;2023-01-01T05:26:22;13.10;99.90
56184;DHT22;42086;53.170;6.980;2023-01-01T05:28:49;13.10;99.90
56184;DHT22;42086;53.170;6.980;2023-01-01T05:31:17;13.10;99.90
56184;DHT22;42086;53.170;6.980;2023-01-01T05:33:43;13.20;99.90
56184;DHT22;42086;53.170;6.980;2023-01-01T05:36:33;13.20;99.90
56184;DHT22;42086;53.170;6.980;2023-01-01T05:39:03;13.30;99.90
56184;DHT22;42086;53.170;6.980;2023-01-01T05:41:30;13.20;99.90
56184;DHT22;42086;53.170;6.980;2023-01-01T05:43:56;13.20;99.90
56184;DHT22;42086;53.170;6.980;2023-01-01T05:46:23;13.20;99.90
56184;DHT22;42086;53.170;6.980;2023-01-01T05:48:50;13.20;99.90
56184;DHT22;42086;53.170;6.980;2023-01-01T05:51:19;13.10;99.90
56184;DHT22;42086;53.170;6.980;2023-01-01T05:53:45;13.10;99.90
56184;DHT22;42086;53.170;6.980;2023-01-01T05:56:11;13.20;99.90
56184;DHT22;42086;53.170;6.980;2023-01-01T05:58:38;13.30;99.90
56184;DHT22;42086;53.170;6.980;2023-01-01T06:01:12;13.40;99.90
56184;DHT22;42086;53.170;6.980;2023-01-01T06:03:38;13.40;99.90
56184;DHT22;42086;53.170;6.980;2023-01-01T06:06:09;13.40;99.90
56184;DHT22;42086;53.170;6.980;2023-01-01T06:08:35;13.30;99.90
56184;DHT22;42086;53.170;6.980;2023-01-01T06:11:03;13.30;99.90
56184;DHT22;42086;53.170;6.980;2023-01-01T06:13:29;13.30;99.90
56184;DHT22;42086;53.170;6.980;2023-01-01T06:15:56;13.30;99.90
56184;DHT22;42086;53.170;6.980;2023-01-01T06:18:23;13.30;99.90
56184;DHT22;42086;53.170;6.980;2023-01-01T06:20:49;13.30;99.90
56184;DHT22;42086;53.170;6.980;2023-01-01T06:23:15;13.30;99.90
56184;DHT22;42086;53.170;6.980;2023-01-01T06:25:41;13.30;99.90
56184;DHT22;42086;53.170;6.980;2023-01-01T06:28:07;13.20;99.90
56184;DHT22;42086;53.170;6.980;2023-01-01T06:30:32;13.30;99.90
56184;DHT22;42086;53.170;6.980;2023-01-01T06:33:02;13.20;99.90
56184;DHT22;42086;53.170;6.980;2023-01-01T06:35:28;13.30;99.90
56184;DHT22;42086;53.170;6.980;2023-01-01T06:37:54;13.20;99.90
56184;DHT22;42086;53.170;6.980;2023-01-01T06:40:20;13.20;99.90
56184;DHT22;42086;53.170;6.980;2023-01-01T06:42:45;13.20;99.90
56184;DHT22;42086;53.170;6.980;2023-01-01T06:45:11;13.20;99.90
56184;DHT22;42086;53.170;6.980;2023-01-01T06:47:38;13.10;99.90
56184;DHT22;42086;53.170;6.980;2023-01-01T06:50:04;13.10;99.90
56184;DHT22;42086;53.170;6.980;2023-01-01T06:52:30;13.00;99.90
56184;DHT22;42086;53.170;6.980;2023-01-01T06:54:56;13.00;99.90
56184;DHT22;42086;53.170;6.980;2023-01-01T06:57:23;13.10;99.90
56184;DHT22;42086;53.170;6.980;2023-01-01T06:59:49;13.00;99.90
56184;DHT22;42086;53.170;6.980;2023-01-01T07:02:15;13.00;99.90
56184;DHT22;42086;53.170;6.980;2023-01-01T07:04:40;13.00;99.90
56184;DHT22;42086;53.170;6.980;2023-01-01T07:07:06;12.90;99.90
56184;DHT22;42086;53.170;6.980;2023-01-01T07:09:32;12.90;99.90
56184;DHT22;42086;53.170;6.980;2023-01-01T07:11:58;12.90;99.90
56184;DHT22;42086;53.170;6.980;2023-01-01T07:14:23;12.80;99.90
56184;DHT22;42086;53.170;6.980;2023-01-01T07:16:49;12.80;99.90
56184;DHT22;42086;53.170;6.980;2023-01-01T07:19:15;12.80;99.90
56184;DHT22;42086;53.170;6.980;2023-01-01T07:21:44;12.70;99.90
56184;DHT22;42086;53.170;6.980;2023-01-01T07:24:13;12.70;99.90
56184;DHT22;42086;53.170;6.980;2023-01-01T07:26:39;12.70;99.90
56184;DHT22;42086;53.170;6.980;2023-01-01T07:29:05;12.70;99.90
56184;DHT22;42086;53.170;6.980;2023-01-01T07:31:34;12.70;99.90
56184;DHT22;42086;53.170;6.980;2023-01-01T07:34:00;12.60;99.90
56184;DHT22;42086;53.170;6.980;2023-01-01T07:36:25;12.70;99.90
56184;DHT22;42086;53.170;6.980;2023-01-01T07:38:51;12.70;99.90
56184;DHT22;42086;53.170;6.980;2023-01-01T07:41:17;12.60;99.90
56184;DHT22;42086;53.170;6.980;2023-01-01T07:43:42;12.70;99.90
56184;DHT22;42086;53.170;6.980;2023-01-01T07:46:11;12.70;99.90
56184;DHT22;42086;53.170;6.980;2023-01-01T07:48:37;12.70;99.90
56184;DHT22;42086;53.170;6.980;2023-01-01T07:51:03;12.60;99.90
56184;DHT22;42086;53.170;6.980;2023-01-01T07:53:28;12.60;99.90
56184;DHT22;42086;53.170;6.980;2023-01-01T07:55:54;12.60;99.90
56184;DHT22;42086;53.170;6.980;2023-01-01T07:58:20;12.60;99.90
56184;DHT22;42086;53.170;6.980;2023-01-01T08:00:47;12.60;99.90
56184;DHT22;42086;53.170;6.980;2023-01-01T08:03:14;12.60;99.90
56184;DHT22;42086;53.170;6.980;2023-01-01T08:05:39;12.50;99.90
56184;DHT22;42086;53.170;6.980;2023-01-01T08:08:05;12.50;99.90
56184;DHT22;42086;53.170;6.980;2023-01-01T08:10:31;12.50;99.90
56184;DHT22;42086;53.170;6.980;2023-01-01T08:13:02;12.50;99.90
56184;DHT22;42086;53.170;6.980;2023-01-01T08:15:28;12.50;99.90
56184;DHT22;42086;53.170;6.980;2023-01-01T08:17:56;12.40;99.90
56184;DHT22;42086;53.170;6.980;2023-01-01T08:20:22;12.40;99.90
56184;DHT22;42086;53.170;6.980;2023-01-01T08:22:47;12.40;99.90
56184;DHT22;42086;53.170;6.980;2023-01-01T08:25:13;12.40;99.90
56184;DHT22;42086;53.170;6.980;2023-01-01T08:27:39;12.50;99.90
56184;DHT22;42086;53.170;6.980;2023-01-01T08:30:05;12.50;99.90
56184;DHT22;42086;53.170;6.980;2023-01-01T08:32:31;12.40;99.90
56184;DHT22;42086;53.170;6.980;2023-01-01T08:34:56;12.40;99.90
56184;DHT22;42086;53.170;6.980;2023-01-01T08:37:22;12.40;99.90
56184;DHT22;42086;53.170;6.980;2023-01-01T08:39:49;12.40;99.90
56184;DHT22;42086;53.170;6.980;2023-01-01T08:42:15;12.50;99.90
56184;DHT22;42086;53.170;6.980;2023-01-01T08:44:41;12.40;99.90
56184;DHT22;42086;53.170;6.980;2023-01-01T08:47:22;12.40;99.90
56184;DHT22;42086;53.170;6.980;2023-01-01T08:49:48;12.40;99.90
56184;DHT22;42086;53.170;6.980;2023-01-01T08:52:14;12.40;99.90
56184;DHT22;42086;53.170;6.980;2023-01-01T08:54:40;12.40;99.90
56184;DHT22;42086;53.170;6.980;2023-01-01T08:57:06;12.30;99.90
56184;DHT22;42086;53.170;6.980;2023-01-01T08:59:31;12.30;99.90
56184;DHT22;42086;53.170;6.980;2023-01-01T09:01:57;12.40;99.90
56184;DHT22;42086;53.170;6.980;2023-01-01T09:04:24;12.40;99.90
56184;DHT22;42086;53.170;6.980;2023-01-01T09:06:50;12.40;99.90
56184;DHT22;42086;53.170;6.980;2023-01-01T09:09:16;12.40;99.90
56184;DHT22;42086;53.170;6.980;2023-01-01T09:11:53;12.30;99.90
56184;DHT22;42086;53.170;6.980;2023-01-01T09:14:19;12.30;99.90
56184;DHT22;42086;53.170;6.980;2023-01-01T09:16:45;12.40;99.90
56184;DHT22;42086;53.170;6.980;2023-01-01T09:19:11;12.40;99.90
56184;DHT22;42086;53.170;6.980;2023-01-01T09:21:37;12.40;99.90
56184;DHT22;42086;53.170;6.980;2023-01-01T09:24:03;12.30;99.90
56184;DHT22;42086;53.170;6.980;2023-01-01T09:30:10;12.40;99.90
56184;DHT22;42086;53.170;6.980;2023-01-01T09:32:36;12.40;99.90
56184;DHT22;42086;53.170;6.980;2023-01-01T09:35:02;12.40;99.90
56184;DHT22;42086;53.170;6.980;2023-01-01T09:37:28;12.40;99.90
56184;DHT22;42086;53.170;6.980;2023-01-01T09:39:53;12.40;99.90
56184;DHT22;42086;53.170;6.980;2023-01-01T09:42:34;12.40;99.90
56184;DHT22;42086;53.170;6.980;2023-01-01T09:45:22;12.40;99.90
56184;DHT22;42086;53.170;6.980;2023-01-01T09:47:52;12.40;99.90
56184;DHT22;42086;53.170;6.980;2023-01-01T09:50:38;12.30;99.90
56184;DHT22;42086;53.170;6.980;2023-01-01T09:53:34;12.40;99.90
56184;DHT22;42086;53.170;6.980;2023-01-01T09:56:03;12.40;99.90
56184;DHT22;42086;53.170;6.980;2023-01-01T09:58:34;12.40;99.90
56184;DHT22;42086;53.170;6.980;2023-01-01T10:15:38;12.50;99.90
56184;DHT22;42086;53.170;6.980;2023-01-01T10:18:13;12.50;99.90
56184;DHT22;42086;53.170;6.980;2023-01-01T10:20:57;12.40;99.90
56184;DHT22;42086;53.170;6.980;2023-01-01T10:23:40;12.40;99.90
56184;DHT22;42086;53.170;6.980;2023-01-01T10:26:19;12.50;99.90
56184;DHT22;42086;53.170;6.980;2023-01-01T10:31:38;12.40;99.90
56184;DHT22;42086;53.170;6.980;2023-01-01T10:34:26;12.50;99.90
56184;DHT22;42086;53.170;6.980;2023-01-01T10:36:55;12.60;99.90
56184;DHT22;42086;53.170;6.980;2023-01-01T10:39:22;12.70;99.90
56184;DHT22;42086;53.170;6.980;2023-01-01T10:41:48;12.60;99.90
56184;DHT22;42086;53.170;6.980;2023-01-01T10:44:27;12.60;99.90
56184;DHT22;42086;53.170;6.980;2023-01-01T10:46:57;12.50;99.90
56184;DHT22;42086;53.170;6.980;2023-01-01T10:49:23;12.50;99.90
56184;DHT22;42086;53.170;6.980;2023-01-01T10:51:51;12.40;99.90
56184;DHT22;42086;53.170;6.980;2023-01-01T10:54:36;12.40;99.90
56184;DHT22;42086;53.170;6.980;2023-01-01T10:57:29;12.50;99.90
56184;DHT22;42086;53.170;6.980;2023-01-01T11:00:09;12.30;99.90
56184;DHT22;42086;53.170;6.980;2023-01-01T11:02:35;12.30;99.90
56184;DHT22;42086;53.170;6.980;2023-01-01T11:07:40;12.30;99.90
56184;DHT22;42086;53.170;6.980;2023-01-01T11:10:16;12.20;99.90
56184;DHT22;42086;53.170;6.980;2023-01-01T11:12:43;12.30;99.90
56184;DHT22;42086;53.170;6.980;2023-01-01T11:15:21;12.30;99.90
56184;DHT22;42086;53.170;6.980;2023-01-01T11:17:47;12.20;99.90
56184;DHT22;42086;53.170;6.980;2023-01-01T11:20:19;12.20;99.90
56184;DHT22;42086;53.170;6.980;2023-01-01T11:22:49;12.20;99.90
56184;DHT22;42086;53.170;6.980;2023-01-01T11:27:43;12.20;99.90
56184;DHT22;42086;53.170;6.980;2023-01-01T11:30:26;12.20;99.90
56184;DHT22;42086;53.170;6.980;2023-01-01T11:32:59;12.20;99.90
56184;DHT22;42086;53.170;6.980;2023-01-01T11:35:31;12.30;99.90
56184;DHT22;42086;53.170;6.980;2023-01-01T11:37:58;12.50;99.90
56184;DHT22;42086;53.170;6.980;2023-01-01T11:40:36;12.80;99.90
56184;DHT22;42086;53.170;6.980;2023-01-01T11:43:04;12.80;99.90
56184;DHT22;42086;53.170;6.980;2023-01-01T11:45:38;12.80;99.90
56184;DHT22;42086;53.170;6.980;2023-01-01T11:48:14;12.70;99.90
56184;DHT22;42086;53.170;6.980;2023-01-01T11:50:54;12.70;99.90
56184;DHT22;42086;53.170;6.980;2023-01-01T12:00:55;12.70;99.90
56184;DHT22;42086;53.170;6.980;2023-01-01T12:03:46;12.70;99.90
56184;DHT22;42086;53.170;6.980;2023-01-01T12:06:29;12.80;99.90
56184;DHT22;42086;53.170;6.980;2023-01-01T12:12:04;13.40;99.90
56184;DHT22;42086;53.170;6.980;2023-01-01T12:17:26;13.70;99.90
56184;DHT22;42086;53.170;6.980;2023-01-01T12:20:32;13.80;99.90
56184;DHT22;42086;53.170;6.980;2023-01-01T12:22:59;13.80;99.90
56184;DHT22;42086;53.170;6.980;2023-01-01T12:25:34;13.90;99.90
56184;DHT22;42086;53.170;6.980;2023-01-01T12:31:18;13.70;49.20
56184;DHT22;42086;53.170;6.980;2023-01-01T12:34:00;13.60;99.90
56184;DHT22;42086;53.170;6.980;2023-01-01T12:51:34;13.30;99.90
56184;DHT22;42086;53.170;6.980;2023-01-01T12:54:18;13.50;99.90
56184;DHT22;42086;53.170;6.980;2023-01-01T12:59:32;13.30;99.90
56184;DHT22;42086;53.170;6.980;2023-01-01T13:02:03;13.20;99.90
56184;DHT22;42086;53.170;6.980;2023-01-01T13:04:37;13.20;99.90
56184;DHT22;42086;53.170;6.980;2023-01-01T13:07:08;13.20;99.90
56184;DHT22;42086;53.170;6.980;2023-01-01T13:09:38;13.20;99.90
56184;DHT22;42086;53.170;6.980;2023-01-01T13:12:11;13.20;99.90
56184;DHT22;42086;53.170;6.980;2023-01-01T13:14:40;13.20;99.90
56184;DHT22;42086;53.170;6.980;2023-01-01T13:17:26;13.20;99.90
56184;DHT22;42086;53.170;6.980;2023-01-01T13:19:58;13.10;99.90
56184;DHT22;42086;53.170;6.980;2023-01-01T13:25:21;13.00;99.90
56184;DHT22;42086;53.170;6.980;2023-01-01T13:33:29;12.80;99.90
56184;DHT22;42086;53.170;6.980;2023-01-01T13:38:53;12.80;99.90
56184;DHT22;42086;53.170;6.980;2023-01-01T13:44:11;12.70;99.90
56184;DHT22;42086;53.170;6.980;2023-01-01T13:49:14;12.70;99.90
56184;DHT22;42086;53.170;6.980;2023-01-01T14:02:56;12.60;99.90
56184;DHT22;42086;53.170;6.980;2023-01-01T14:05:36;12.60;99.90
56184;DHT22;42086;53.170;6.980;2023-01-01T14:08:03;12.60;99.90
56184;DHT22;42086;53.170;6.980;2023-01-01T14:10:31;12.50;99.90
56184;DHT22;42086;53.170;6.980;2023-01-01T14:13:17;12.50;99.90
56184;DHT22;42086;53.170;6.980;2023-01-01T14:18:19;12.50;99.90
56184;DHT22;42086;53.170;6.980;2023-01-01T14:20:48;12.50;99.90
56184;DHT22;42086;53.170;6.980;2023-01-01T14:23:33;12.50;99.90
56184;DHT22;42086;53.170;6.980;2023-01-01T14:26:23;12.50;99.90
56184;DHT22;42086;53.170;6.980;2023-01-01T14:28:47;12.50;99.90
56184;DHT22;42086;53.170;6.980;2023-01-01T14:31:18;12.40;99.90
56184;DHT22;42086;53.170;6.980;2023-01-01T14:33:45;12.40;99.90
56184;DHT22;42086;53.170;6.980;2023-01-01T14:38:48;12.20;99.90
56184;DHT22;42086;53.170;6.980;2023-01-01T14:41:36;12.20;99.90
56184;DHT22;42086;53.170;6.980;2023-01-01T14:44:10;12.20;99.90
56184;DHT22;42086;53.170;6.980;2023-01-01T14:46:45;12.10;99.90
56184;DHT22;42086;53.170;6.980;2023-01-01T14:49:17;12.00;99.90
56184;DHT22;42086;53.170;6.980;2023-01-01T14:51:46;12.00;99.90
56184;DHT22;42086;53.170;6.980;2023-01-01T14:54:20;12.00;99.90
56184;DHT22;42086;53.170;6.980;2023-01-01T14:56:49;11.90;99.90
56184;DHT22;42086;53.170;6.980;2023-01-01T14:59:30;11.90;99.90
56184;DHT22;42086;53.170;6.980;2023-01-01T15:02:12;11.80;99.90
56184;DHT22;42086;53.170;6.980;2023-01-01T15:04:39;11.70;99.90
56184;DHT22;42086;53.170;6.980;2023-01-01T15:07:05;11.70;99.90
56184;DHT22;42086;53.170;6.980;2023-01-01T15:09:31;11.70;99.90
56184;DHT22;42086;53.170;6.980;2023-01-01T15:11:58;11.70;99.90
56184;DHT22;42086;53.170;6.980;2023-01-01T15:14:39;11.60;99.90
56184;DHT22;42086;53.170;6.980;2023-01-01T15:17:10;11.60;99.90
56184;DHT22;42086;53.170;6.980;2023-01-01T15:19:38;11.50;99.90
56184;DHT22;42086;53.170;6.980;2023-01-01T15:22:26;11.50;99.90
56184;DHT22;42086;53.170;6.980;2023-01-01T15:24:52;11.40;99.90
56184;DHT22;42086;53.170;6.980;2023-01-01T15:27:30;11.40;99.90
56184;DHT22;42086;53.170;6.980;2023-01-01T15:29:57;11.40;99.90
56184;DHT22;42086;53.170;6.980;2023-01-01T15:32:27;11.40;99.90
56184;DHT22;42086;53.170;6.980;2023-01-01T15:34:58;11.40;99.90
56184;DHT22;42086;53.170;6.980;2023-01-01T15:37:32;11.40;99.90
56184;DHT22;42086;53.170;6.980;2023-01-01T15:40:45;11.40;99.90
56184;DHT22;42086;53.170;6.980;2023-01-01T15:43:10;11.40;99.90
56184;DHT22;42086;53.170;6.980;2023-01-01T15:45:38;11.30;99.90
56184;DHT22;42086;53.170;6.980;2023-01-01T15:50:36;11.20;99.90
56184;DHT22;42086;53.170;6.980;2023-01-01T15:53:26;11.20;99.90
56184;DHT22;42086;53.170;6.980;2023-01-01T15:56:02;11.20;99.90
56184;DHT22;42086;53.170;6.980;2023-01-01T15:58:35;11.10;99.90
56184;DHT22;42086;53.170;6.980;2023-01-01T16:01:04;11.10;99.90
56184;DHT22;42086;53.170;6.980;2023-01-01T16:03:32;11.00;99.90
56184;DHT22;42086;53.170;6.980;2023-01-01T16:05:58;10.90;99.90
56184;DHT22;42086;53.170;6.980;2023-01-01T16:08:24;11.00;99.90
56184;DHT22;42086;53.170;6.980;2023-01-01T16:10:51;10.90;99.90
56184;DHT22;42086;53.170;6.980;2023-01-01T16:13:17;10.90;99.90
56184;DHT22;42086;53.170;6.980;2023-01-01T16:18:16;10.90;99.90
56184;DHT22;42086;53.170;6.980;2023-01-01T16:20:43;10.90;99.90
56184;DHT22;42086;53.170;6.980;2023-01-01T16:23:09;10.80;99.90
56184;DHT22;42086;53.170;6.980;2023-01-01T16:25:35;10.90;99.90
56184;DHT22;42086;53.170;6.980;2023-01-01T16:28:01;10.90;99.90
56184;DHT22;42086;53.170;6.980;2023-01-01T16:30:29;10.80;99.90
56184;DHT22;42086;53.170;6.980;2023-01-01T16:32:54;10.90;99.90
56184;DHT22;42086;53.170;6.980;2023-01-01T16:35:20;10.90;99.90
56184;DHT22;42086;53.170;6.980;2023-01-01T16:37:46;10.90;99.90
56184;DHT22;42086;53.170;6.980;2023-01-01T16:40:12;10.80;99.90
56184;DHT22;42086;53.170;6.980;2023-01-01T16:42:38;10.80;99.90
56184;DHT22;42086;53.170;6.980;2023-01-01T16:45:04;10.90;99.90
56184;DHT22;42086;53.170;6.980;2023-01-01T16:47:30;10.90;99.90
56184;DHT22;42086;53.170;6.980;2023-01-01T16:49:56;10.90;99.90
56184;DHT22;42086;53.170;6.980;2023-01-01T16:52:22;10.90;99.90
56184;DHT22;42086;53.170;6.980;2023-01-01T16:54:47;10.90;99.90
56184;DHT22;42086;53.170;6.980;2023-01-01T16:57:13;10.90;99.90
56184;DHT22;42086;53.170;6.980;2023-01-01T16:59:39;10.90;99.90
56184;DHT22;42086;53.170;6.980;2023-01-01T17:02:07;10.90;99.90
56184;DHT22;42086;53.170;6.980;2023-01-01T17:04:33;10.90;99.90
56184;DHT22;42086;53.170;6.980;2023-01-01T17:07:00;10.90;99.90
56184;DHT22;42086;53.170;6.980;2023-01-01T17:09:25;11.00;99.90
56184;DHT22;42086;53.170;6.980;2023-01-01T17:11:51;11.00;99.90
56184;DHT22;42086;53.170;6.980;2023-01-01T17:14:17;10.90;99.90
56184;DHT22;42086;53.170;6.980;2023-01-01T17:16:42;10.90;99.90
56184;DHT22;42086;53.170;6.980;2023-01-01T17:19:10;10.90;99.90
56184;DHT22;42086;53.170;6.980;2023-01-01T17:21:37;10.90;99.90
56184;DHT22;42086;53.170;6.980;2023-01-01T17:24:02;10.80;99.90
56184;DHT22;42086;53.170;6.980;2023-01-01T17:26:28;10.80;99.90
56184;DHT22;42086;53.170;6.980;2023-01-01T17:28:54;10.90;99.90
56184;DHT22;42086;53.170;6.980;2023-01-01T17:31:20;10.90;99.90
56184;DHT22;42086;53.170;6.980;2023-01-01T17:33:49;10.80;99.90
56184;DHT22;42086;53.170;6.980;2023-01-01T17:36:16;10.80;99.90
56184;DHT22;42086;53.170;6.980;2023-01-01T17:38:42;10.80;99.90
56184;DHT22;42086;53.170;6.980;2023-01-01T17:41:12;10.80;99.90
56184;DHT22;42086;53.170;6.980;2023-01-01T17:43:39;10.80;99.90
56184;DHT22;42086;53.170;6.980;2023-01-01T17:46:07;10.80;99.90
56184;DHT22;42086;53.170;6.980;2023-01-01T17:48:36;10.80;99.90
56184;DHT22;42086;53.170;6.980;2023-01-01T17:51:03;10.80;99.90
56184;DHT22;42086;53.170;6.980;2023-01-01T17:53:31;10.80;99.90
56184;DHT22;42086;53.170;6.980;2023-01-01T17:55:57;10.80;99.90
56184;DHT22;42086;53.170;6.980;2023-01-01T17:58:23;10.80;99.90
56184;DHT22;42086;53.170;6.980;2023-01-01T18:00:49;10.90;99.90
56184;DHT22;42086;53.170;6.980;2023-01-01T18:03:17;10.90;99.90